Aurora, South Dakota
Current Conditions -  °F | °C
As of 8:10 PM on Friday 19 Dec 2014 (Local Time) from KMDS Reporting Station
Overcast Overcast  
Wind Chill: 16°   Ceiling: 400
Heat Index: 28°   Visibility: 7mi
Dew Point: 28°   Wind: 18mph
Humidity: 100%   Direction: 180°S
Pressure: 30.04"   Gusts: 22mph
Location:  44.28°N, 96.69°W
Report Text: KMDS 200210Z AUTO 18016G19KT 7SM OVC004 M02/M02 A3004 RMK AO2
Loading
Personal Weather Stations






























Interactive Weather Map New forecast layout! Learn more

10-Day Weather Forecast

Advertisements
Track Severe Weather on mobile